createdAt,value
2019-04-29T00:00:48.257Z,9.94
2019-04-29T00:01:53.812Z,9.91
2019-04-29T00:02:57.637Z,9.86
2019-04-29T00:04:01.548Z,9.86
2019-04-29T00:05:06.965Z,9.83
2019-04-29T00:06:11.317Z,9.82
2019-04-29T00:07:15.307Z,9.81
2019-04-29T00:08:19.930Z,9.79
2019-04-29T00:09:24.366Z,9.79
2019-04-29T00:10:28.764Z,9.77
2019-04-29T00:11:32.960Z,9.77
2019-04-29T00:12:37.113Z,9.76
2019-04-29T00:13:41.371Z,9.76
2019-04-29T00:14:50.695Z,9.75
2019-04-29T00:16:11.359Z,9.77
2019-04-29T00:17:21.545Z,9.75
2019-04-29T00:18:35.263Z,9.74
2019-04-29T00:19:57.494Z,9.71
2019-04-29T00:21:01.396Z,9.66
2019-04-29T00:22:05.890Z,9.60
2019-04-29T00:23:10.518Z,9.57
2019-04-29T00:24:14.660Z,9.55
2019-04-29T00:25:18.648Z,9.56
2019-04-29T00:26:22.647Z,9.54
2019-04-29T00:27:27.238Z,9.53
2019-04-29T00:28:31.545Z,9.53
2019-04-29T00:29:35.781Z,9.53
2019-04-29T00:30:40.068Z,9.52
2019-04-29T00:31:44.676Z,9.53
2019-04-29T00:32:49.148Z,9.52
2019-04-29T00:33:53.702Z,9.52
2019-04-29T00:34:57.608Z,9.51
2019-04-29T00:36:02.016Z,9.50
2019-04-29T00:37:16.337Z,9.46
2019-04-29T00:38:48.331Z,9.47
2019-04-29T00:40:10.022Z,9.46
2019-04-29T00:41:51.455Z,9.40
2019-04-29T00:43:05.895Z,9.37
2019-04-29T00:44:12.024Z,9.33
2019-04-29T00:45:16.039Z,9.30
2019-04-29T00:46:20.189Z,9.29
2019-04-29T00:47:24.625Z,9.28
2019-04-29T00:48:29.055Z,9.27
2019-04-29T00:49:33.169Z,9.28
2019-04-29T00:50:37.239Z,9.26
2019-04-29T00:51:41.066Z,9.26
2019-04-29T00:52:45.048Z,9.24
2019-04-29T00:53:50.734Z,9.22
2019-04-29T00:55:01.131Z,9.21
2019-04-29T00:56:06.054Z,9.20
2019-04-29T00:57:10.033Z,9.20
2019-04-29T00:58:14.195Z,9.19
2019-04-29T00:59:18.661Z,9.19
2019-04-29T01:00:33.384Z,9.20
2019-04-29T01:01:37.389Z,9.21
2019-04-29T01:02:41.442Z,9.19
2019-04-29T01:03:45.775Z,9.19
2019-04-29T01:04:49.911Z,9.18
2019-04-29T01:05:54.555Z,9.19
2019-04-29T01:06:58.939Z,9.18
2019-04-29T01:08:03.231Z,9.17
2019-04-29T01:09:11.242Z,9.16
2019-04-29T01:10:15.980Z,9.13
2019-04-29T01:11:20.512Z,9.12
2019-04-29T01:12:24.929Z,9.10
2019-04-29T01:13:28.927Z,9.09
2019-04-29T01:14:33.315Z,9.09
2019-04-29T01:15:37.304Z,9.09
2019-04-29T01:16:41.214Z,9.10
2019-04-29T01:17:45.244Z,9.10
2019-04-29T01:18:50.164Z,9.10
2019-04-29T01:19:54.042Z,9.12
2019-04-29T01:20:58.028Z,9.13
2019-04-29T01:22:01.945Z,9.12
2019-04-29T01:23:06.191Z,9.11
2019-04-29T01:24:10.165Z,9.09
2019-04-29T01:25:14.555Z,9.10
2019-04-29T01:26:38.911Z,9.09
2019-04-29T01:27:49.769Z,9.08
2019-04-29T01:28:54.866Z,9.04
2019-04-29T01:29:58.992Z,9.03
2019-04-29T01:31:06.318Z,9.02
2019-04-29T01:32:10.282Z,9.04
2019-04-29T01:33:14.504Z,9.03
2019-04-29T01:34:23.528Z,9.04
2019-04-29T01:35:27.359Z,9.02
2019-04-29T01:36:37.403Z,9.02
2019-04-29T01:37:42.903Z,9.00
2019-04-29T01:38:48.816Z,9.00
2019-04-29T01:40:01.154Z,8.99
2019-04-29T01:41:12.191Z,8.98
2019-04-29T01:42:22.702Z,8.97
2019-04-29T01:43:45.947Z,8.97
2019-04-29T01:44:50.040Z,8.94
2019-04-29T01:45:54.029Z,8.95
2019-04-29T01:46:58.329Z,8.92
2019-04-29T01:48:02.841Z,8.90
2019-04-29T01:49:07.048Z,8.87
2019-04-29T01:50:11.475Z,8.86
2019-04-29T01:51:15.639Z,8.84
2019-04-29T01:52:19.550Z,8.81
2019-04-29T01:53:23.375Z,8.78
2019-04-29T01:54:27.976Z,8.76
2019-04-29T01:55:32.486Z,8.75
2019-04-29T01:56:36.316Z,8.75
2019-04-29T01:57:40.490Z,8.72
2019-04-29T01:58:45.076Z,8.69
2019-04-29T01:59:50.076Z,8.69
2019-04-29T02:00:53.951Z,8.66
2019-04-29T02:01:58.178Z,8.65
2019-04-29T02:03:02.645Z,8.64
2019-04-29T02:04:06.729Z,8.63
2019-04-29T02:05:11.059Z,8.61
2019-04-29T02:06:15.288Z,8.62
2019-04-29T02:07:19.586Z,8.60
2019-04-29T02:08:23.634Z,8.58
2019-04-29T02:09:32.781Z,8.57
2019-04-29T02:10:36.689Z,8.56
2019-04-29T02:11:40.710Z,8.54
2019-04-29T02:12:44.697Z,8.53
2019-04-29T02:13:49.176Z,8.52
2019-04-29T02:14:53.427Z,8.52
2019-04-29T02:15:57.930Z,8.50
2019-04-29T02:17:02.108Z,8.50
2019-04-29T02:18:06.014Z,8.49
2019-04-29T02:19:10.338Z,8.49
2019-04-29T02:20:14.333Z,8.46
2019-04-29T02:21:18.653Z,8.45
2019-04-29T02:22:41.553Z,8.44
2019-04-29T02:24:04.844Z,8.41
2019-04-29T02:25:19.906Z,8.41
2019-04-29T02:26:23.826Z,8.39
2019-04-29T02:27:27.996Z,8.35
2019-04-29T02:28:31.901Z,8.34
2019-04-29T02:29:36.193Z,8.32
2019-04-29T02:30:48.403Z,8.30
2019-04-29T02:31:52.640Z,8.30
2019-04-29T02:32:57.166Z,8.31
2019-04-29T02:34:01.079Z,8.30
2019-04-29T02:35:05.223Z,8.31
2019-04-29T02:36:09.395Z,8.32
2019-04-29T02:37:15.250Z,8.33
2019-04-29T02:38:47.475Z,8.33
2019-04-29T02:39:57.972Z,8.34
2019-04-29T02:41:36.370Z,8.32
2019-04-29T02:42:50.318Z,8.31
2019-04-29T02:43:54.767Z,8.28
2019-04-29T02:45:03.252Z,8.25
2019-04-29T02:46:07.194Z,8.25
2019-04-29T02:47:11.170Z,8.26
2019-04-29T02:48:15.586Z,8.27
2019-04-29T02:49:20.253Z,8.28
2019-04-29T02:50:24.962Z,8.30
2019-04-29T02:51:47.868Z,8.30
2019-04-29T02:52:51.763Z,8.30
2019-04-29T02:53:55.746Z,8.29
2019-04-29T02:55:01.693Z,8.29
2019-04-29T02:56:05.679Z,8.30
2019-04-29T02:57:46.782Z,8.30
2019-04-29T02:58:58.563Z,8.29
2019-04-29T03:00:11.873Z,8.28
2019-04-29T03:01:33.479Z,8.27
2019-04-29T03:02:46.304Z,8.27
2019-04-29T03:03:57.351Z,8.22
2019-04-29T03:05:09.616Z,8.18
2019-04-29T03:06:14.166Z,8.20
2019-04-29T03:07:18.202Z,8.18
2019-04-29T03:08:22.810Z,8.17
2019-04-29T03:09:26.808Z,8.16
2019-04-29T03:10:30.865Z,8.16
2019-04-29T03:11:34.979Z,8.15
2019-04-29T03:12:39.926Z,8.16
2019-04-29T03:13:44.522Z,8.16
2019-04-29T03:14:48.997Z,8.15
2019-04-29T03:15:53.357Z,8.16
2019-04-29T03:16:57.552Z,8.16
2019-04-29T03:18:01.613Z,8.14
2019-04-29T03:19:10.237Z,8.15
2019-04-29T03:20:28.677Z,8.13
2019-04-29T03:21:40.418Z,8.13
2019-04-29T03:22:45.293Z,8.10
2019-04-29T03:23:49.838Z,8.07
2019-04-29T03:24:54.004Z,8.07
2019-04-29T03:25:58.081Z,8.08
2019-04-29T03:27:02.269Z,8.09
2019-04-29T03:28:06.695Z,8.10
2019-04-29T03:29:22.419Z,8.11
2019-04-29T03:30:26.743Z,8.10
2019-04-29T03:31:31.131Z,8.11
2019-04-29T03:32:35.254Z,8.12
2019-04-29T03:33:39.494Z,8.14
2019-04-29T03:34:43.657Z,8.15
2019-04-29T03:35:48.325Z,8.16
2019-04-29T03:36:52.882Z,8.17
2019-04-29T03:37:56.808Z,8.17
2019-04-29T03:39:01.139Z,8.19
2019-04-29T03:40:06.423Z,8.20
2019-04-29T03:41:10.336Z,8.22
2019-04-29T03:42:14.589Z,8.21
2019-04-29T03:43:19.148Z,8.20
2019-04-29T03:44:23.119Z,8.20
2019-04-29T03:45:27.716Z,8.21
2019-04-29T03:46:31.782Z,8.20
2019-04-29T03:47:35.638Z,8.20
2019-04-29T03:48:39.881Z,8.21
2019-04-29T03:49:44.375Z,8.21
2019-04-29T03:50:48.389Z,8.21
2019-04-29T03:51:52.302Z,8.21
2019-04-29T03:52:56.792Z,8.20
2019-04-29T03:54:00.998Z,8.21
2019-04-29T03:55:05.210Z,8.22
2019-04-29T03:56:09.542Z,8.22
2019-04-29T03:57:14.726Z,8.21
2019-04-29T03:58:18.943Z,8.22
2019-04-29T03:59:23.050Z,8.20
2019-04-29T04:00:27.085Z,8.21
2019-04-29T04:01:36.758Z,8.21
2019-04-29T04:02:47.444Z,8.20
2019-04-29T04:03:55.804Z,8.20
2019-04-29T04:05:18.154Z,8.21
2019-04-29T04:06:41.429Z,8.20
2019-04-29T04:07:50.167Z,8.21
2019-04-29T04:09:06.133Z,8.20
2019-04-29T04:10:03.624Z,8.22
2019-04-29T04:11:07.880Z,8.22
2019-04-29T04:12:11.862Z,8.21
2019-04-29T04:13:16.447Z,8.24
2019-04-29T04:14:20.719Z,8.23
2019-04-29T04:15:24.823Z,8.25
2019-04-29T04:16:46.439Z,8.25
2019-04-29T04:18:05.071Z,8.24
2019-04-29T04:19:09.518Z,8.24
2019-04-29T04:20:13.775Z,8.22
2019-04-29T04:21:17.677Z,8.22
2019-04-29T04:22:21.775Z,8.24
2019-04-29T04:23:25.909Z,8.27
2019-04-29T04:24:30.643Z,8.26
2019-04-29T04:25:34.738Z,8.26
2019-04-29T04:26:38.811Z,8.26
2019-04-29T04:27:42.725Z,8.27
2019-04-29T04:28:46.857Z,8.29
2019-04-29T04:29:50.752Z,8.29
2019-04-29T04:30:54.970Z,8.29
2019-04-29T04:31:59.295Z,8.30
2019-04-29T04:33:03.467Z,8.30
2019-04-29T04:34:07.625Z,8.34
2019-04-29T04:35:12.347Z,8.36
2019-04-29T04:36:16.185Z,8.40
2019-04-29T04:37:20.012Z,8.41
2019-04-29T04:38:23.961Z,8.44
2019-04-29T04:39:29.649Z,8.46
2019-04-29T04:40:38.273Z,8.47
2019-04-29T04:41:42.353Z,8.50
2019-04-29T04:42:46.278Z,8.52
2019-04-29T04:43:50.623Z,8.54
2019-04-29T04:44:54.537Z,8.55
2019-04-29T04:45:58.445Z,8.58
2019-04-29T04:47:02.616Z,8.59
2019-04-29T04:48:06.942Z,8.62
2019-04-29T04:49:11.012Z,8.65
2019-04-29T04:50:16.352Z,8.67
2019-04-29T04:51:20.258Z,8.69
2019-04-29T04:52:24.766Z,8.72
2019-04-29T04:53:28.677Z,8.73
2019-04-29T04:54:32.602Z,8.73
2019-04-29T04:55:38.554Z,8.75
2019-04-29T04:56:42.823Z,8.77
2019-04-29T04:57:47.121Z,8.78
2019-04-29T04:58:50.949Z,8.82
2019-04-29T04:59:55.534Z,8.85
2019-04-29T05:00:59.519Z,8.87
2019-04-29T05:02:03.564Z,8.90
2019-04-29T05:03:07.847Z,8.93
2019-04-29T05:04:11.951Z,8.94
2019-04-29T05:05:15.930Z,8.96
2019-04-29T05:06:19.756Z,8.97
2019-04-29T05:07:23.773Z,8.91
2019-04-29T05:08:27.935Z,9.01
2019-04-29T05:09:32.058Z,9.03
2019-04-29T05:10:35.965Z,9.04
2019-04-29T05:11:39.802Z,9.05
2019-04-29T05:12:44.059Z,9.08
2019-04-29T05:13:47.883Z,9.10
2019-04-29T05:14:52.266Z,9.13
2019-04-29T05:15:56.289Z,9.17
2019-04-29T05:17:00.199Z,9.19
2019-04-29T05:18:04.261Z,9.22
2019-04-29T05:19:08.106Z,9.24
2019-04-29T05:20:12.327Z,9.29
2019-04-29T05:21:16.569Z,9.32
2019-04-29T05:22:20.422Z,9.37
2019-04-29T05:23:24.698Z,9.41
2019-04-29T05:24:29.208Z,9.45
2019-04-29T05:25:34.601Z,9.50
2019-04-29T05:26:38.924Z,9.53
2019-04-29T05:27:43.460Z,9.55
2019-04-29T05:28:48.288Z,9.58
2019-04-29T05:29:52.143Z,9.60
2019-04-29T05:30:56.380Z,9.61
2019-04-29T05:32:00.567Z,9.65
2019-04-29T05:33:04.488Z,9.67
2019-04-29T05:34:08.391Z,9.71
2019-04-29T05:35:14.535Z,9.75
2019-04-29T05:36:34.034Z,9.77
2019-04-29T05:38:05.152Z,9.79
2019-04-29T05:39:31.351Z,9.80
2019-04-29T05:40:56.723Z,9.81
2019-04-29T05:41:59.967Z,9.82
2019-04-29T05:43:05.147Z,9.82
2019-04-29T05:44:19.079Z,9.86
2019-04-29T05:45:34.572Z,9.88
2019-04-29T05:46:57.751Z,9.91
2019-04-29T05:48:10.141Z,9.93
2019-04-29T05:49:16.883Z,9.99
2019-04-29T05:50:40.647Z,10.02
2019-04-29T05:51:57.564Z,10.06
2019-04-29T05:53:27.049Z,10.07
2019-04-29T05:54:33.517Z,10.08
2019-04-29T05:55:37.956Z,10.11
2019-04-29T05:56:41.870Z,10.15
2019-04-29T05:57:46.374Z,10.20
2019-04-29T05:58:50.640Z,10.25
2019-04-29T05:59:54.715Z,10.30
2019-04-29T06:01:02.410Z,10.35
2019-04-29T06:02:06.581Z,10.42
2019-04-29T06:03:11.080Z,10.49
2019-04-29T06:04:16.202Z,10.55
2019-04-29T06:05:20.954Z,10.60
2019-04-29T06:06:25.022Z,10.67
2019-04-29T06:07:29.350Z,10.72
2019-04-29T06:08:34.589Z,10.78
2019-04-29T06:09:39.537Z,10.83
2019-04-29T06:10:43.778Z,10.88
2019-04-29T06:11:47.787Z,10.94
2019-04-29T06:12:52.119Z,10.97
2019-04-29T06:13:56.519Z,11.03
2019-04-29T06:15:00.766Z,11.09
2019-04-29T06:16:04.761Z,11.15
2019-04-29T06:17:08.902Z,11.20
2019-04-29T06:18:12.970Z,11.24
2019-04-29T06:19:17.308Z,11.29
2019-04-29T06:20:22.898Z,11.34
2019-04-29T06:21:27.213Z,11.39
2019-04-29T06:22:31.335Z,11.44
2019-04-29T06:23:35.512Z,11.48
2019-04-29T06:24:41.160Z,11.53
2019-04-29T06:25:45.337Z,11.57
2019-04-29T06:26:49.351Z,11.61
2019-04-29T06:27:53.195Z,11.65
2019-04-29T06:28:57.201Z,11.70
2019-04-29T06:30:03.117Z,11.71
2019-04-29T06:31:07.397Z,11.76
2019-04-29T06:32:11.566Z,11.80
2019-04-29T06:33:15.726Z,11.84
2019-04-29T06:34:20.538Z,11.90
2019-04-29T06:35:24.536Z,11.91
2019-04-29T06:36:28.782Z,11.96
2019-04-29T06:37:33.103Z,12.00
2019-04-29T06:38:37.027Z,12.04
2019-04-29T06:39:41.253Z,12.08
2019-04-29T06:40:45.168Z,12.10
2019-04-29T06:41:49.166Z,12.13
2019-04-29T06:42:54.857Z,12.15
2019-04-29T06:44:00.617Z,12.20
2019-04-29T06:45:05.183Z,12.24
2019-04-29T06:46:09.723Z,12.28
2019-04-29T06:47:16.712Z,12.31
2019-04-29T06:48:19.574Z,12.33
2019-04-29T06:49:23.505Z,12.34
2019-04-29T06:50:27.772Z,12.36
2019-04-29T06:51:32.138Z,12.38
2019-04-29T06:52:36.046Z,12.44
2019-04-29T06:53:40.501Z,12.48
2019-04-29T06:54:45.218Z,12.53
2019-04-29T06:55:49.828Z,12.58
2019-04-29T06:56:54.340Z,12.63
2019-04-29T06:57:58.550Z,12.63
2019-04-29T06:59:02.912Z,12.67
2019-04-29T07:00:07.369Z,12.67
2019-04-29T07:01:11.358Z,12.69
2019-04-29T07:02:16.117Z,12.72
2019-04-29T07:03:20.989Z,12.74
2019-04-29T07:04:26.495Z,12.80
2019-04-29T07:05:30.412Z,12.82
2019-04-29T07:06:34.551Z,12.86
2019-04-29T07:07:38.817Z,12.91
2019-04-29T07:08:42.958Z,12.92
2019-04-29T07:09:47.115Z,12.95
2019-04-29T07:10:56.021Z,12.95
2019-04-29T07:12:01.280Z,12.97
2019-04-29T07:13:03.611Z,12.97
2019-04-29T07:14:07.984Z,12.97
2019-04-29T07:15:13.886Z,12.99
2019-04-29T07:16:21.951Z,12.99
2019-04-29T07:17:24.117Z,12.98
2019-04-29T07:18:28.387Z,12.98
2019-04-29T07:19:32.903Z,12.98
2019-04-29T07:20:38.775Z,12.97
2019-04-29T07:21:46.924Z,12.96
2019-04-29T07:22:48.963Z,12.98
2019-04-29T07:23:53.241Z,12.98
2019-04-29T07:24:57.722Z,13.02
2019-04-29T07:26:01.902Z,13.03
2019-04-29T07:27:06.156Z,13.06
2019-04-29T07:28:13.797Z,13.08
2019-04-29T07:29:16.666Z,13.10
2019-04-29T07:30:21.312Z,13.11
2019-04-29T07:31:28.420Z,13.12
2019-04-29T07:32:32.508Z,13.13
2019-04-29T07:33:36.891Z,13.12
2019-04-29T07:34:41.296Z,13.12
2019-04-29T07:35:47.984Z,13.14
2019-04-29T07:36:53.144Z,13.16
2019-04-29T07:37:56.695Z,13.18
2019-04-29T07:39:00.857Z,13.22
2019-04-29T07:40:08.066Z,13.24
2019-04-29T07:41:14.318Z,13.29
2019-04-29T07:42:16.849Z,13.34
2019-04-29T07:43:21.271Z,13.42
2019-04-29T07:44:32.887Z,13.48
2019-04-29T07:45:52.085Z,13.55
2019-04-29T07:47:00.432Z,13.64
2019-04-29T07:48:06.422Z,13.72
2019-04-29T07:49:12.673Z,13.80
2019-04-29T07:50:15.518Z,13.88
2019-04-29T07:51:20.056Z,13.94
2019-04-29T07:52:23.891Z,14.01
2019-04-29T07:53:36.735Z,14.07
2019-04-29T07:54:33.989Z,14.12
2019-04-29T07:55:38.485Z,14.15
2019-04-29T07:56:43.718Z,14.19
2019-04-29T07:57:51.599Z,14.23
2019-04-29T07:58:54.172Z,14.28
2019-04-29T07:59:58.350Z,14.29
2019-04-29T08:01:02.633Z,14.31
2019-04-29T08:02:06.894Z,14.33
2019-04-29T08:03:11.101Z,14.35
2019-04-29T08:04:15.407Z,14.37
2019-04-29T08:05:19.715Z,14.40
2019-04-29T08:06:23.701Z,14.43
2019-04-29T08:07:27.784Z,14.46
2019-04-29T08:08:33.137Z,14.47
2019-04-29T08:09:39.854Z,14.48
2019-04-29T08:10:54.054Z,14.49
2019-04-29T08:11:49.660Z,14.50
2019-04-29T08:12:55.122Z,14.51
2019-04-29T08:14:01.006Z,14.56
2019-04-29T08:15:07.843Z,14.58
2019-04-29T08:16:12.678Z,14.61
2019-04-29T08:17:17.544Z,14.66
2019-04-29T08:18:21.758Z,14.71
2019-04-29T08:19:29.318Z,14.74
2019-04-29T08:20:35.460Z,14.78
2019-04-29T08:21:37.938Z,14.84
2019-04-29T08:22:41.846Z,14.91
2019-04-29T08:23:46.267Z,14.95
2019-04-29T08:24:52.131Z,15.01
2019-04-29T08:25:57.495Z,15.05
2019-04-29T08:27:02.478Z,15.08
2019-04-29T08:28:06.920Z,15.10
2019-04-29T08:29:11.169Z,15.14
2019-04-29T08:30:18.232Z,15.19
2019-04-29T08:31:22.257Z,15.25
2019-04-29T08:32:26.587Z,15.29
2019-04-29T08:33:30.597Z,15.34
2019-04-29T08:34:34.716Z,15.39
2019-04-29T08:35:38.802Z,15.43
2019-04-29T08:36:42.652Z,15.47
2019-04-29T08:37:46.755Z,15.52
2019-04-29T08:38:50.677Z,15.56
2019-04-29T08:40:14.818Z,15.61
2019-04-29T08:41:00.837Z,15.69
2019-04-29T08:42:09.130Z,15.72
2019-04-29T08:43:27.413Z,15.73
2019-04-29T08:44:54.790Z,15.79
2019-04-29T08:46:00.649Z,15.83
2019-04-29T08:47:16.273Z,15.92
2019-04-29T08:48:20.548Z,16.00
2019-04-29T08:49:24.406Z,16.08
2019-04-29T08:50:28.647Z,16.16
2019-04-29T08:51:32.628Z,16.21
2019-04-29T08:52:36.458Z,16.27
2019-04-29T08:53:40.619Z,16.30
2019-04-29T08:54:44.686Z,16.33
2019-04-29T08:55:48.871Z,16.33
2019-04-29T08:57:02.838Z,16.34
2019-04-29T08:57:59.167Z,16.33
2019-04-29T08:59:03.872Z,16.32
2019-04-29T09:00:08.940Z,16.30
2019-04-29T09:01:13.565Z,16.30
2019-04-29T09:02:33.094Z,16.27
2019-04-29T09:03:24.424Z,16.27
2019-04-29T09:04:33.370Z,16.28
2019-04-29T09:05:34.504Z,16.33
2019-04-29T09:06:38.356Z,16.37
2019-04-29T09:07:42.542Z,16.42
2019-04-29T09:08:54.526Z,16.51
2019-04-29T09:09:56.157Z,16.52
2019-04-29T09:10:57.768Z,16.55
2019-04-29T09:12:02.283Z,16.60
2019-04-29T09:13:06.454Z,16.63
2019-04-29T09:14:12.945Z,16.70
2019-04-29T09:15:17.094Z,16.74
2019-04-29T09:16:21.632Z,16.81
2019-04-29T09:17:26.075Z,16.85
2019-04-29T09:18:29.993Z,16.89
2019-04-29T09:19:34.004Z,16.93
2019-04-29T09:20:38.005Z,16.97
2019-04-29T09:21:44.517Z,17.00
2019-04-29T09:22:53.916Z,17.04
2019-04-29T09:23:57.874Z,17.10
2019-04-29T09:25:26.174Z,17.11
2019-04-29T09:26:51.688Z,17.06
2019-04-29T09:27:56.571Z,16.97
2019-04-29T09:29:19.768Z,16.92
2019-04-29T09:30:23.693Z,16.92
2019-04-29T09:31:27.799Z,16.95
2019-04-29T09:32:33.963Z,16.96
2019-04-29T09:33:37.994Z,16.99
2019-04-29T09:34:41.997Z,17.00
2019-04-29T09:35:46.584Z,17.06
2019-04-29T09:36:50.497Z,17.02
2019-04-29T09:37:58.418Z,17.09
2019-04-29T09:39:00.753Z,17.08
2019-04-29T09:40:05.761Z,17.01
2019-04-29T09:41:35.251Z,16.98
2019-04-29T09:42:50.297Z,16.97
2019-04-29T09:44:14.566Z,16.99
2019-04-29T09:45:58.677Z,17.04
2019-04-29T09:47:04.185Z,17.12
2019-04-29T09:48:06.844Z,17.16
2019-04-29T09:49:10.867Z,17.27
2019-04-29T09:50:15.768Z,17.32
2019-04-29T09:51:22.573Z,17.33
2019-04-29T09:52:26.275Z,17.35
2019-04-29T09:53:30.796Z,17.39
2019-04-29T09:54:35.371Z,17.44
2019-04-29T09:55:41.156Z,17.51
2019-04-29T09:56:45.288Z,17.56
2019-04-29T09:57:49.613Z,17.63
2019-04-29T09:59:12.640Z,17.69
2019-04-29T10:00:25.160Z,17.76
2019-04-29T10:01:40.396Z,17.86
2019-04-29T10:02:51.829Z,17.95
2019-04-29T10:04:10.179Z,17.98
2019-04-29T10:05:36.344Z,17.93
2019-04-29T10:06:41.613Z,17.89
2019-04-29T10:07:45.558Z,17.81
2019-04-29T10:08:49.896Z,17.77
2019-04-29T10:09:57.294Z,17.77
2019-04-29T10:10:59.892Z,17.75
2019-04-29T10:12:04.063Z,17.77
2019-04-29T10:13:08.484Z,17.81
2019-04-29T10:14:12.743Z,17.87
2019-04-29T10:15:18.573Z,17.93
2019-04-29T10:16:36.049Z,18.00
2019-04-29T10:17:55.700Z,18.07
2019-04-29T10:19:23.276Z,18.15
2019-04-29T10:20:35.151Z,18.26
2019-04-29T10:21:39.339Z,18.25
2019-04-29T10:22:43.648Z,18.22
2019-04-29T10:23:47.636Z,18.22
2019-04-29T10:24:52.166Z,18.21
2019-04-29T10:25:56.792Z,18.24
2019-04-29T10:27:01.292Z,18.26
2019-04-29T10:28:05.808Z,18.28
2019-04-29T10:29:18.428Z,18.26
2019-04-29T10:30:21.954Z,18.29
2019-04-29T10:31:26.414Z,18.30
2019-04-29T10:32:30.330Z,18.35
2019-04-29T10:33:34.556Z,18.42
2019-04-29T10:34:38.539Z,18.39
2019-04-29T10:35:45.191Z,18.37
2019-04-29T10:36:52.247Z,18.40
2019-04-29T10:37:53.934Z,18.39
2019-04-29T10:39:01.703Z,18.38
2019-04-29T10:40:35.050Z,18.35
2019-04-29T10:41:41.806Z,18.41
2019-04-29T10:42:52.520Z,18.29
2019-04-29T10:44:14.520Z,18.25
2019-04-29T10:45:40.690Z,18.28
2019-04-29T10:47:04.011Z,18.32
2019-04-29T10:48:17.256Z,18.41
2019-04-29T10:49:28.894Z,18.49
2019-04-29T10:50:36.074Z,18.54
2019-04-29T10:51:40.379Z,18.59
2019-04-29T10:52:44.706Z,18.60
2019-04-29T10:53:51.050Z,18.62
2019-04-29T10:54:56.687Z,18.63
2019-04-29T10:56:05.377Z,18.64
2019-04-29T10:57:10.412Z,18.65
2019-04-29T10:58:12.467Z,18.60
2019-04-29T10:59:16.452Z,18.58
2019-04-29T11:00:39.804Z,18.55
2019-04-29T11:02:35.166Z,18.54
2019-04-29T11:03:39.748Z,18.54
2019-04-29T11:04:44.532Z,18.42
2019-04-29T11:06:00.639Z,18.38
2019-04-29T11:06:57.394Z,18.38
2019-04-29T11:08:23.709Z,18.41
2019-04-29T11:09:53.127Z,18.44
2019-04-29T11:11:02.471Z,18.48
2019-04-29T11:12:08.855Z,18.52
2019-04-29T11:13:12.997Z,18.59
2019-04-29T11:14:17.248Z,18.63
2019-04-29T11:15:23.418Z,18.65
2019-04-29T11:16:45.355Z,18.71
2019-04-29T11:17:35.127Z,18.77
2019-04-29T11:18:39.362Z,18.85
2019-04-29T11:19:43.442Z,18.93
2019-04-29T11:20:48.782Z,18.90
2019-04-29T11:21:52.986Z,18.89
2019-04-29T11:23:09.107Z,18.92
2019-04-29T11:24:19.007Z,18.95
2019-04-29T11:25:34.191Z,19.02
2019-04-29T11:26:47.189Z,19.09
2019-04-29T11:27:55.840Z,19.18
2019-04-29T11:28:59.028Z,19.26
2019-04-29T11:30:04.955Z,19.27
2019-04-29T11:31:13.581Z,19.30
2019-04-29T11:32:24.843Z,19.33
2019-04-29T11:33:40.011Z,19.35
2019-04-29T11:34:56.252Z,19.38
2019-04-29T11:36:08.854Z,19.39
2019-04-29T11:37:17.901Z,19.40
2019-04-29T11:38:21.031Z,19.44
2019-04-29T11:39:24.939Z,19.44
2019-04-29T11:40:42.743Z,19.45
2019-04-29T11:41:34.785Z,19.49
2019-04-29T11:42:41.835Z,19.51
2019-04-29T11:43:46.772Z,19.57
2019-04-29T11:44:52.172Z,19.61
2019-04-29T11:45:56.462Z,19.66
2019-04-29T11:47:01.204Z,19.70
2019-04-29T11:48:05.669Z,19.74
2019-04-29T11:49:09.654Z,19.71
2019-04-29T11:50:28.592Z,19.70
2019-04-29T11:52:05.300Z,19.73
2019-04-29T11:52:46.660Z,19.72
2019-04-29T11:53:50.643Z,19.69
2019-04-29T11:54:54.863Z,19.68
2019-04-29T11:55:59.479Z,19.70
2019-04-29T11:57:03.464Z,19.73
2019-04-29T11:58:14.091Z,19.69
2019-04-29T11:59:49.282Z,19.71
2019-04-29T12:01:03.877Z,19.78
2019-04-29T12:02:16.623Z,19.80
2019-04-29T12:03:21.368Z,19.83
2019-04-29T12:04:42.180Z,19.88
2019-04-29T12:05:49.663Z,19.94
2019-04-29T12:06:56.246Z,20.03
2019-04-29T12:08:03.010Z,20.09
2019-04-29T12:09:07.126Z,20.16
2019-04-29T12:10:11.491Z,20.22
2019-04-29T12:11:16.312Z,20.27
2019-04-29T12:12:20.947Z,20.28
2019-04-29T12:13:32.098Z,20.29
2019-04-29T12:14:54.563Z,20.29
2019-04-29T12:16:19.812Z,20.28
2019-04-29T12:17:31.104Z,20.26
2019-04-29T12:18:43.241Z,20.27
2019-04-29T12:19:48.414Z,20.28
2019-04-29T12:21:17.649Z,20.27
2019-04-29T12:22:30.224Z,20.30
2019-04-29T12:23:27.543Z,20.19
2019-04-29T12:24:32.042Z,19.98
2019-04-29T12:25:36.484Z,20.04
2019-04-29T12:26:44.281Z,20.03
2019-04-29T12:27:46.285Z,20.02
2019-04-29T12:28:50.460Z,19.99
2019-04-29T12:29:59.155Z,20.00
2019-04-29T12:31:05.651Z,20.03
2019-04-29T12:32:37.526Z,19.97
2019-04-29T12:33:46.834Z,19.90
2019-04-29T12:35:07.103Z,19.81
2019-04-29T12:36:12.225Z,19.85
2019-04-29T12:37:45.319Z,19.91
2019-04-29T12:39:43.056Z,19.93
2019-04-29T12:40:55.119Z,20.00
2019-04-29T12:42:35.632Z,19.97
2019-04-29T12:44:17.610Z,19.95
2019-04-29T12:45:26.179Z,19.87
2019-04-29T12:46:55.244Z,19.84
2019-04-29T12:47:59.270Z,19.85
2019-04-29T12:49:07.609Z,19.89
2019-04-29T12:50:09.420Z,19.91
2019-04-29T12:51:13.398Z,19.91
2019-04-29T12:52:17.462Z,19.89
2019-04-29T12:53:21.312Z,19.87
2019-04-29T12:54:26.010Z,19.90
2019-04-29T12:55:45.926Z,19.89
2019-04-29T12:56:47.754Z,19.88
2019-04-29T12:57:51.399Z,19.89
2019-04-29T12:58:59.559Z,19.92
2019-04-29T13:00:01.134Z,19.95
2019-04-29T13:01:33.470Z,19.98
2019-04-29T13:03:00.164Z,19.98
2019-04-29T13:04:22.819Z,19.90
2019-04-29T13:05:57.511Z,19.86
2019-04-29T13:07:13.393Z,19.80
2019-04-29T13:08:21.862Z,19.73
2019-04-29T13:09:35.077Z,19.70
2019-04-29T13:10:45.825Z,19.68
2019-04-29T13:11:56.122Z,19.64
2019-04-29T13:12:58.085Z,19.63
2019-04-29T13:14:02.514Z,19.63
2019-04-29T13:15:33.342Z,19.63
2019-04-29T13:16:57.084Z,19.62
2019-04-29T13:18:13.037Z,19.63
2019-04-29T13:19:20.542Z,19.62
2019-04-29T13:20:24.872Z,19.61
2019-04-29T13:21:28.827Z,19.57
2019-04-29T13:22:33.079Z,19.57
2019-04-29T13:23:53.730Z,19.54
2019-04-29T13:24:44.508Z,19.49
2019-04-29T13:25:50.913Z,19.43
2019-04-29T13:26:54.109Z,19.37
2019-04-29T13:28:04.015Z,19.33
2019-04-29T13:29:04.191Z,19.28
2019-04-29T13:30:14.851Z,19.23
2019-04-29T13:31:20.018Z,19.25
2019-04-29T13:32:25.446Z,19.26
2019-04-29T13:33:28.473Z,19.28
2019-04-29T13:34:36.730Z,19.26
2019-04-29T13:35:47.742Z,19.25
2019-04-29T13:36:57.479Z,19.26
2019-04-29T13:37:52.836Z,19.23
2019-04-29T13:38:57.001Z,19.18
2019-04-29T13:40:01.402Z,19.13
2019-04-29T13:41:13.565Z,19.08
2019-04-29T13:42:15.602Z,19.03
2019-04-29T13:43:20.781Z,19.00
2019-04-29T13:44:23.159Z,18.94
2019-04-29T13:45:35.296Z,18.84
2019-04-29T13:46:58.261Z,18.76
2019-04-29T13:48:27.228Z,18.68
2019-04-29T13:49:48.749Z,18.60
2019-04-29T13:51:02.763Z,18.11
2019-04-29T13:52:06.763Z,17.75
2019-04-29T13:53:11.784Z,17.43
2019-04-29T13:54:16.834Z,17.26
2019-04-29T13:55:46.617Z,17.03
2019-04-29T13:56:39.329Z,16.64
2019-04-29T13:57:32.858Z,16.39
2019-04-29T13:58:36.849Z,16.24
2019-04-29T13:59:59.047Z,16.07
2019-04-29T14:01:39.681Z,16.00
2019-04-29T14:02:58.881Z,15.86
2019-04-29T14:04:14.328Z,15.58
2019-04-29T14:05:18.700Z,15.50
2019-04-29T14:06:22.892Z,15.40
2019-04-29T14:07:27.140Z,15.37
2019-04-29T14:08:31.183Z,15.35
2019-04-29T14:09:39.228Z,15.45
2019-04-29T14:10:41.181Z,15.39
2019-04-29T14:11:45.752Z,15.35
2019-04-29T14:13:00.833Z,15.42
2019-04-29T14:13:55.853Z,15.34
2019-04-29T14:15:00.242Z,15.32
2019-04-29T14:16:07.781Z,15.33
2019-04-29T14:17:25.280Z,15.38
2019-04-29T14:18:18.389Z,15.38
2019-04-29T14:19:40.235Z,15.40
2019-04-29T14:20:28.595Z,15.46
2019-04-29T14:21:32.831Z,15.53
2019-04-29T14:22:37.079Z,15.61
2019-04-29T14:23:41.609Z,15.68
2019-04-29T14:24:47.005Z,15.74
2019-04-29T14:25:51.375Z,15.79
2019-04-29T14:26:55.870Z,15.87
2019-04-29T14:27:59.966Z,15.87
2019-04-29T14:29:04.491Z,15.93
2019-04-29T14:30:13.058Z,15.94
2019-04-29T14:31:18.699Z,15.90
2019-04-29T14:32:34.562Z,15.87
2019-04-29T14:33:34.294Z,15.91
2019-04-29T14:34:47.212Z,15.91
2019-04-29T14:35:59.537Z,15.88
2019-04-29T14:37:18.762Z,15.87
2019-04-29T14:38:09.389Z,15.83
2019-04-29T14:39:18.894Z,15.86
2019-04-29T14:40:19.360Z,15.88
2019-04-29T14:41:23.365Z,15.91